Terminal Aerodrome Forecast
Issued by NWS Sterling, VA

Home | Current Version | Previous Version | Text Only | Print | Product List | Glossary On
Versions: 1 2 3 4 5 6 7 8 9 10 11 12 13 14 15 16 17
095
FTUS41 KLWX 262335
TAFCHO
TAF
KCHO 262335Z 2700/2724 24005KT P6SM FEW080
     FM271100 00000KT P6SM BKN140
     FM271800 25006KT P6SM BKN070
     FM272200 25006KT P6SM SCT070=

USA.gov is the U.S. government's official web portal to all federal, state and local government web resources and services.